createdAt,value
2022-12-16T00:01:42.597Z,95.73
2022-12-16T00:04:13.117Z,105.13
2022-12-16T00:06:41.647Z,99.13
2022-12-16T00:09:10.290Z,96.37
2022-12-16T00:11:39.075Z,87.70
2022-12-16T00:14:07.828Z,100.83
2022-12-16T00:16:36.886Z,95.97
2022-12-16T00:19:05.738Z,113.20
2022-12-16T00:21:36.963Z,126.70
2022-12-16T00:24:05.554Z,118.33
2022-12-16T00:26:34.199Z,111.27
2022-12-16T00:29:05.568Z,112.87
2022-12-16T00:31:34.292Z,112.93
2022-12-16T00:34:03.532Z,99.97
2022-12-16T00:36:32.275Z,107.47
2022-12-16T00:39:02.487Z,106.10
2022-12-16T00:41:31.064Z,104.87
2022-12-16T00:43:59.623Z,101.70
2022-12-16T00:46:28.137Z,93.30
2022-12-16T00:48:56.883Z,101.97
2022-12-16T00:51:28.532Z,107.83
2022-12-16T00:53:57.155Z,104.27
2022-12-16T00:56:27.369Z,104.83
2022-12-16T00:58:56.197Z,116.20
2022-12-16T01:01:24.847Z,111.10
2022-12-16T01:03:53.799Z,115.90
2022-12-16T01:06:23.985Z,118.33
2022-12-16T01:08:53.000Z,102.90
2022-12-16T01:11:28.117Z,106.07
2022-12-16T01:13:56.655Z,112.23
2022-12-16T01:16:25.484Z,109.13
2022-12-16T01:18:57.101Z,108.73
2022-12-16T01:21:26.158Z,111.53
2022-12-16T01:23:54.911Z,109.87
2022-12-16T01:26:24.764Z,110.17
2022-12-16T01:28:55.251Z,103.97
2022-12-16T01:31:24.848Z,112.30
2022-12-16T01:33:54.004Z,103.07
2022-12-16T01:36:22.825Z,117.73
2022-12-16T01:38:52.088Z,115.17
2022-12-16T01:41:24.032Z,102.03
2022-12-16T01:43:52.847Z,116.00
2022-12-16T01:46:26.151Z,111.57
2022-12-16T01:49:00.423Z,114.27
2022-12-16T01:51:34.987Z,107.43
2022-12-16T01:54:09.192Z,104.30
2022-12-16T01:56:42.256Z,106.40
2022-12-16T01:59:15.837Z,106.73
2022-12-16T02:01:46.150Z,106.17
2022-12-16T02:04:15.291Z,104.57
2022-12-16T02:06:44.507Z,103.23
2022-12-16T02:09:16.365Z,100.57
2022-12-16T02:12:06.148Z,96.47
2022-12-16T02:15:04.536Z,100.43
2022-12-16T02:17:41.676Z,100.17
2022-12-16T02:20:38.531Z,100.03
2022-12-16T02:23:29.708Z,99.47
2022-12-16T02:26:32.310Z,83.47
2022-12-16T02:29:19.459Z,87.17
2022-12-16T02:31:57.336Z,82.10
2022-12-16T02:34:33.475Z,88.23
2022-12-16T02:37:15.386Z,91.27
2022-12-16T02:39:52.258Z,85.20
2022-12-16T02:42:29.100Z,85.50
2022-12-16T02:45:04.463Z,83.13
2022-12-16T02:47:34.481Z,84.10
2022-12-16T02:50:03.650Z,78.43
2022-12-16T02:52:35.380Z,83.07
2022-12-16T02:55:11.113Z,89.90
2022-12-16T02:57:53.565Z,80.53
2022-12-16T03:00:24.367Z,93.57
2022-12-16T03:03:02.236Z,76.00
2022-12-16T03:05:34.674Z,74.77
2022-12-16T03:08:07.837Z,82.23
2022-12-16T03:10:41.440Z,78.27
2022-12-16T03:13:12.965Z,78.53
2022-12-16T03:15:42.930Z,82.43
2022-12-16T03:18:15.363Z,80.60
2022-12-16T03:20:48.895Z,74.63
2022-12-16T03:23:21.798Z,79.07
2022-12-16T03:25:55.863Z,81.70
2022-12-16T03:28:37.616Z,84.70
2022-12-16T03:31:14.433Z,76.30
2022-12-16T03:33:52.924Z,81.27
2022-12-16T03:36:24.550Z,83.63
2022-12-16T03:38:55.228Z,77.83
2022-12-16T03:41:25.311Z,85.23
2022-12-16T03:43:54.771Z,79.20
2022-12-16T03:46:23.392Z,79.43
2022-12-16T03:48:54.180Z,73.93
2022-12-16T03:51:22.748Z,76.87
2022-12-16T03:53:51.360Z,77.80
2022-12-16T03:56:20.115Z,72.27
2022-12-16T03:58:48.796Z,71.77
2022-12-16T04:01:18.004Z,69.73
2022-12-16T04:03:46.712Z,70.60
2022-12-16T04:06:18.722Z,69.23
2022-12-16T04:08:47.892Z,75.67
2022-12-16T04:11:34.590Z,68.17
2022-12-16T04:14:20.872Z,72.10
2022-12-16T04:17:06.538Z,84.00
2022-12-16T04:19:56.093Z,73.23
2022-12-16T04:22:48.467Z,75.77
2022-12-16T04:25:18.477Z,69.73
2022-12-16T04:27:48.011Z,70.20
2022-12-16T04:30:24.576Z,64.53
2022-12-16T04:33:13.930Z,78.33
2022-12-16T04:36:00.134Z,74.30
2022-12-16T04:38:50.491Z,71.13
2022-12-16T04:41:36.777Z,73.23
2022-12-16T04:44:23.842Z,80.63
2022-12-16T04:47:10.416Z,79.13
2022-12-16T04:49:56.425Z,67.63
2022-12-16T04:52:43.075Z,70.17
2022-12-16T04:55:30.674Z,74.47
2022-12-16T04:58:19.300Z,80.63
2022-12-16T05:01:07.126Z,76.03
2022-12-16T05:03:53.963Z,82.90
2022-12-16T05:06:40.279Z,65.97
2022-12-16T05:09:27.193Z,74.90
2022-12-16T05:12:14.557Z,90.50
2022-12-16T05:15:00.271Z,74.30
2022-12-16T05:17:46.640Z,66.67
2022-12-16T05:20:32.843Z,75.37
2022-12-16T05:23:18.760Z,78.63
2022-12-16T05:26:05.105Z,75.30
2022-12-16T05:28:52.656Z,88.50
2022-12-16T05:31:38.271Z,83.23
2022-12-16T05:34:24.506Z,82.47
2022-12-16T05:37:10.837Z,84.73
2022-12-16T05:39:57.119Z,84.73
2022-12-16T05:42:43.519Z,90.57
2022-12-16T05:45:31.737Z,74.57
2022-12-16T05:48:17.838Z,90.30
2022-12-16T05:51:04.298Z,85.00
2022-12-16T05:53:50.779Z,81.70
2022-12-16T05:56:36.948Z,90.40
2022-12-16T05:59:23.396Z,85.53
2022-12-16T06:02:10.844Z,82.03
2022-12-16T06:04:57.316Z,75.17
2022-12-16T06:07:43.381Z,86.30
2022-12-16T06:10:25.597Z,74.90
2022-12-16T06:13:11.527Z,81.93
2022-12-16T06:15:57.828Z,81.20
2022-12-16T06:18:45.641Z,72.57
2022-12-16T06:21:31.825Z,81.23
2022-12-16T06:24:17.991Z,77.07
2022-12-16T06:27:04.117Z,77.77
2022-12-16T06:29:50.409Z,69.20
2022-12-16T06:32:36.003Z,77.13
2022-12-16T06:35:23.657Z,77.97
2022-12-16T06:38:11.904Z,71.60
2022-12-16T06:40:58.082Z,73.27
2022-12-16T06:43:44.106Z,79.23
2022-12-16T06:46:30.407Z,68.77
2022-12-16T06:49:17.527Z,72.57
2022-12-16T06:52:04.996Z,78.37
2022-12-16T06:54:51.425Z,67.80
2022-12-16T06:57:46.144Z,73.10
2022-12-16T07:00:41.218Z,75.70
2022-12-16T07:03:29.474Z,75.93
2022-12-16T07:06:22.331Z,71.07
2022-12-16T07:09:09.849Z,76.20
2022-12-16T07:11:56.127Z,68.13
2022-12-16T07:14:42.275Z,72.33
2022-12-16T07:17:28.638Z,72.33
2022-12-16T07:20:14.802Z,76.63
2022-12-16T07:23:09.899Z,77.30
2022-12-16T07:26:00.036Z,75.80
2022-12-16T07:28:46.632Z,78.17
2022-12-16T07:31:33.151Z,79.53
2022-12-16T07:34:19.438Z,67.80
2022-12-16T07:37:05.809Z,73.87
2022-12-16T07:39:55.234Z,75.70
2022-12-16T07:42:43.204Z,80.83
2022-12-16T07:45:29.430Z,71.70
2022-12-16T07:48:15.858Z,78.50
2022-12-16T07:51:01.985Z,79.30
2022-12-16T07:53:48.488Z,67.60
2022-12-16T07:56:34.906Z,90.33
2022-12-16T07:59:22.835Z,72.70
2022-12-16T08:02:09.074Z,84.60
2022-12-16T08:04:55.173Z,79.13
2022-12-16T08:07:41.864Z,73.63
2022-12-16T08:10:28.521Z,74.87
2022-12-16T08:13:26.113Z,72.37
2022-12-16T08:16:12.689Z,78.70
2022-12-16T08:18:59.206Z,93.30
2022-12-16T08:21:45.422Z,77.57
2022-12-16T08:24:36.844Z,77.80
2022-12-16T08:27:22.819Z,81.37
2022-12-16T08:30:08.957Z,82.33
2022-12-16T08:33:00.645Z,80.43
2022-12-16T08:35:49.632Z,81.50
2022-12-16T08:38:37.150Z,103.77
2022-12-16T08:41:23.972Z,93.97
2022-12-16T08:44:10.368Z,96.70
2022-12-16T08:46:57.051Z,97.87
2022-12-16T08:49:45.403Z,92.30
2022-12-16T08:52:32.298Z,87.43
2022-12-16T08:55:18.680Z,90.87
2022-12-16T08:58:11.819Z,90.00
2022-12-16T09:01:03.172Z,80.40
2022-12-16T09:03:53.181Z,84.83
2022-12-16T09:06:41.422Z,93.00
2022-12-16T09:09:28.040Z,88.93
2022-12-16T09:12:14.561Z,81.73
2022-12-16T09:15:01.073Z,69.37
2022-12-16T09:17:47.770Z,80.93
2022-12-16T09:20:34.454Z,78.10
2022-12-16T09:23:22.798Z,73.00
2022-12-16T09:26:09.535Z,72.40
2022-12-16T09:28:56.043Z,78.20
2022-12-16T09:31:42.446Z,69.57
2022-12-16T09:34:29.047Z,74.00
2022-12-16T09:37:15.427Z,78.40
2022-12-16T09:40:08.730Z,73.37
2022-12-16T09:43:03.525Z,66.80
2022-12-16T09:46:00.613Z,73.63
2022-12-16T09:48:50.040Z,78.83
2022-12-16T09:51:36.944Z,78.47
2022-12-16T09:54:26.691Z,75.10
2022-12-16T09:57:14.611Z,75.53
2022-12-16T10:00:04.908Z,68.57
2022-12-16T10:02:52.032Z,76.63
2022-12-16T10:05:46.369Z,69.47
2022-12-16T10:08:41.198Z,73.43
2022-12-16T10:11:35.428Z,66.83
2022-12-16T10:14:38.434Z,70.33
2022-12-16T10:17:31.140Z,74.50
2022-12-16T10:20:24.074Z,70.50
2022-12-16T10:23:17.187Z,70.37
2022-12-16T10:26:08.728Z,83.43
2022-12-16T10:29:04.082Z,72.53
2022-12-16T10:31:53.416Z,71.73
2022-12-16T10:34:47.770Z,71.43
2022-12-16T10:37:40.645Z,75.07
2022-12-16T10:40:34.607Z,74.00
2022-12-16T10:43:24.351Z,72.50
2022-12-16T10:46:13.223Z,75.43
2022-12-16T10:49:00.933Z,70.57
2022-12-16T10:51:48.729Z,76.60
2022-12-16T10:54:47.371Z,73.70
2022-12-16T10:57:42.864Z,75.80
2022-12-16T11:00:33.148Z,78.37
2022-12-16T11:03:38.021Z,76.03
2022-12-16T11:06:27.451Z,74.33
2022-12-16T11:09:13.849Z,76.53
2022-12-16T11:11:59.811Z,74.60
2022-12-16T11:15:05.916Z,83.10
2022-12-16T11:18:02.933Z,78.80
2022-12-16T11:20:48.995Z,90.10
2022-12-16T11:23:39.184Z,81.47
2022-12-16T11:26:34.531Z,78.30
2022-12-16T11:29:25.652Z,90.33
2022-12-16T11:32:16.944Z,85.50
2022-12-16T11:35:09.775Z,84.80
2022-12-16T11:37:57.351Z,93.50
2022-12-16T11:40:45.434Z,88.70
2022-12-16T11:43:34.744Z,90.53
2022-12-16T11:46:27.552Z,90.23
2022-12-16T11:49:23.467Z,95.10
2022-12-16T11:52:35.837Z,95.13
2022-12-16T11:56:03.621Z,95.93
2022-12-16T11:58:49.918Z,95.33
2022-12-16T12:01:45.417Z,94.73
2022-12-16T12:04:33.778Z,88.13
2022-12-16T12:07:45.358Z,93.67
2022-12-16T12:11:01.448Z,104.07
2022-12-16T12:14:07.439Z,94.73
2022-12-16T12:17:07.336Z,100.97
2022-12-16T12:20:09.288Z,100.90
2022-12-16T12:22:57.680Z,105.70
2022-12-16T12:25:52.026Z,94.50
2022-12-16T12:28:46.883Z,103.17
2022-12-16T12:31:49.239Z,110.93
2022-12-16T12:34:47.904Z,112.30
2022-12-16T12:37:42.123Z,104.50
2022-12-16T12:40:47.917Z,107.20
2022-12-16T12:43:46.684Z,112.27
2022-12-16T12:46:41.462Z,100.43
2022-12-16T12:49:34.990Z,112.90
2022-12-16T12:52:34.655Z,101.77
2022-12-16T12:55:29.024Z,109.53
2022-12-16T12:58:18.278Z,99.13
2022-12-16T13:01:09.856Z,123.73
2022-12-16T13:04:03.199Z,101.97
2022-12-16T13:06:50.615Z,124.33
2022-12-16T13:09:50.340Z,122.60
2022-12-16T13:12:48.499Z,128.83
2022-12-16T13:15:52.160Z,112.73
2022-12-16T13:18:48.910Z,120.37
2022-12-16T13:22:05.014Z,101.53
2022-12-16T13:25:07.695Z,101.27
2022-12-16T13:28:13.504Z,129.00
2022-12-16T13:31:20.251Z,136.23
2022-12-16T13:34:12.276Z,116.20
2022-12-16T13:37:03.212Z,125.03
2022-12-16T13:40:05.669Z,108.90
2022-12-16T13:43:23.282Z,139.20
2022-12-16T13:46:40.737Z,115.93
2022-12-16T13:49:59.183Z,146.03
2022-12-16T13:53:11.729Z,117.03
2022-12-16T13:56:16.494Z,125.57
2022-12-16T13:59:07.105Z,144.47
2022-12-16T14:02:02.280Z,106.53
2022-12-16T14:04:58.405Z,123.60
2022-12-16T14:07:58.215Z,126.03
2022-12-16T14:10:53.541Z,116.80
2022-12-16T14:13:50.537Z,118.67
2022-12-16T14:16:51.704Z,118.23
2022-12-16T14:19:49.745Z,127.57
2022-12-16T14:22:52.416Z,119.63
2022-12-16T14:25:41.112Z,115.30
2022-12-16T14:28:41.707Z,115.73
2022-12-16T14:31:35.440Z,121.47
2022-12-16T14:34:24.549Z,115.07
2022-12-16T14:37:11.186Z,118.57
2022-12-16T14:39:59.183Z,112.13
2022-12-16T14:42:47.695Z,100.83
2022-12-16T14:45:46.065Z,106.03
2022-12-16T14:48:49.675Z,97.53
2022-12-16T14:51:43.634Z,107.40
2022-12-16T14:54:42.040Z,109.83
2022-12-16T14:57:33.508Z,106.17
2022-12-16T15:00:35.335Z,103.17
2022-12-16T15:03:30.313Z,105.53
2022-12-16T15:06:20.183Z,100.77
2022-12-16T15:09:10.685Z,108.80
2022-12-16T15:11:58.229Z,114.33
2022-12-16T15:14:58.071Z,99.30
2022-12-16T15:17:48.219Z,108.03
2022-12-16T15:20:40.013Z,114.30
2022-12-16T15:23:38.127Z,114.57
2022-12-16T15:26:25.532Z,111.00
2022-12-16T15:29:12.413Z,112.77
2022-12-16T15:32:03.199Z,112.00
2022-12-16T15:34:54.896Z,102.13
2022-12-16T15:37:44.281Z,98.10
2022-12-16T15:40:45.834Z,111.57
2022-12-16T15:43:44.242Z,115.40
2022-12-16T15:46:36.283Z,126.03
2022-12-16T15:49:23.483Z,119.17
2022-12-16T15:52:10.991Z,107.83
2022-12-16T15:55:10.146Z,109.00
2022-12-16T15:57:58.911Z,105.63
2022-12-16T16:00:47.215Z,106.10
2022-12-16T16:03:43.022Z,106.63
2022-12-16T16:06:36.680Z,91.97
2022-12-16T16:09:32.264Z,108.70
2022-12-16T16:12:18.785Z,95.13
2022-12-16T16:15:06.626Z,113.27
2022-12-16T16:17:53.558Z,115.20
2022-12-16T16:20:39.822Z,109.93
2022-12-16T16:23:27.867Z,110.30
2022-12-16T16:26:14.836Z,100.03
2022-12-16T16:29:01.349Z,118.30
2022-12-16T16:31:48.964Z,121.90
2022-12-16T16:34:35.690Z,103.97
2022-12-16T16:37:22.196Z,115.83
2022-12-16T16:40:08.383Z,106.17
2022-12-16T16:42:55.535Z,109.77
2022-12-16T16:45:41.915Z,112.27
2022-12-16T16:48:32.815Z,98.63
2022-12-16T16:51:20.229Z,103.00
2022-12-16T16:54:03.135Z,101.27
2022-12-16T16:56:52.144Z,102.97
2022-12-16T16:59:41.610Z,93.27
2022-12-16T17:02:40.565Z,102.30
2022-12-16T17:05:30.239Z,103.07
2022-12-16T17:08:16.739Z,96.03
2022-12-16T17:11:03.106Z,102.63
2022-12-16T17:13:49.602Z,106.43
2022-12-16T17:16:36.164Z,109.30
2022-12-16T17:19:22.620Z,96.33
2022-12-16T17:22:10.546Z,97.03
2022-12-16T17:24:57.272Z,108.63
2022-12-16T17:27:45.114Z,94.67
2022-12-16T17:30:47.746Z,101.33
2022-12-16T17:33:35.859Z,100.73
2022-12-16T17:36:28.561Z,103.33
2022-12-16T17:39:20.021Z,111.40
2022-12-16T17:42:06.666Z,107.97
2022-12-16T17:44:53.535Z,106.87
2022-12-16T17:47:41.108Z,105.60
2022-12-16T17:50:29.554Z,104.23
2022-12-16T17:53:16.657Z,110.80
2022-12-16T17:56:04.478Z,112.50
2022-12-16T17:58:51.989Z,108.53
2022-12-16T18:01:38.881Z,108.47
2022-12-16T18:04:25.084Z,113.60
2022-12-16T18:07:11.657Z,123.63
2022-12-16T18:09:57.953Z,114.63
2022-12-16T18:12:46.502Z,128.47
2022-12-16T18:15:33.984Z,120.33
2022-12-16T18:18:20.480Z,132.40
2022-12-16T18:21:07.207Z,107.50
2022-12-16T18:23:54.112Z,146.57
2022-12-16T18:26:41.361Z,148.43
2022-12-16T18:29:29.580Z,128.60
2022-12-16T18:32:16.091Z,133.43
2022-12-16T18:35:02.682Z,108.37
2022-12-16T18:37:48.917Z,126.87
2022-12-16T18:40:35.649Z,126.73
2022-12-16T18:43:22.110Z,149.43
2022-12-16T18:46:18.112Z,129.30
2022-12-16T18:49:04.841Z,143.77
2022-12-16T18:51:51.062Z,130.27
2022-12-16T18:54:37.852Z,125.80
2022-12-16T18:57:24.347Z,117.97
2022-12-16T19:00:10.600Z,115.87
2022-12-16T19:02:58.905Z,127.93
2022-12-16T19:05:45.704Z,121.10
2022-12-16T19:08:32.554Z,130.63
2022-12-16T19:11:19.496Z,113.10
2022-12-16T19:14:05.934Z,111.70
2022-12-16T19:16:52.498Z,117.73
2022-12-16T19:19:39.956Z,121.97
2022-12-16T19:22:26.594Z,117.37
2022-12-16T19:25:13.001Z,130.87
2022-12-16T19:27:59.530Z,129.33
2022-12-16T19:30:46.101Z,118.33
2022-12-16T19:33:32.544Z,121.97
2022-12-16T19:36:20.663Z,125.37
2022-12-16T19:39:07.099Z,114.27
2022-12-16T19:41:53.542Z,124.67
2022-12-16T19:44:42.850Z,115.40
2022-12-16T19:47:49.664Z,121.40
2022-12-16T19:50:38.462Z,119.13
2022-12-16T19:53:26.013Z,121.60
2022-12-16T19:56:38.485Z,122.43
2022-12-16T19:59:30.807Z,189.57
2022-12-16T20:02:20.199Z,153.57
2022-12-16T20:05:07.201Z,133.93
2022-12-16T20:07:53.703Z,141.17
2022-12-16T20:10:44.224Z,153.27
2022-12-16T20:13:31.548Z,113.03
2022-12-16T20:16:21.660Z,128.63
2022-12-16T20:19:19.660Z,125.43
2022-12-16T20:22:08.269Z,106.50
2022-12-16T20:24:58.412Z,133.30
2022-12-16T20:27:47.597Z,128.20
2022-12-16T20:30:35.953Z,103.23
2022-12-16T20:33:22.716Z,111.20
2022-12-16T20:36:17.965Z,113.70
2022-12-16T20:39:05.765Z,127.23
2022-12-16T20:41:55.946Z,121.93
2022-12-16T20:44:44.291Z,121.40
2022-12-16T20:47:30.758Z,115.47
2022-12-16T20:50:17.246Z,118.37
2022-12-16T20:53:04.228Z,127.70
2022-12-16T20:55:50.553Z,112.40
2022-12-16T20:58:39.824Z,450.90
2022-12-16T21:01:27.485Z,230.10
2022-12-16T21:04:13.976Z,171.83
2022-12-16T21:07:00.275Z,142.67
2022-12-16T21:09:46.706Z,124.97
2022-12-16T21:12:33.133Z,117.20
2022-12-16T21:15:19.952Z,128.60
2022-12-16T21:18:08.075Z,126.83
2022-12-16T21:20:56.003Z,125.77
2022-12-16T21:23:42.995Z,120.73
2022-12-16T21:26:29.586Z,124.43
2022-12-16T21:29:15.822Z,134.17
2022-12-16T21:32:02.367Z,120.83
2022-12-16T21:34:51.779Z,135.93
2022-12-16T21:37:38.466Z,136.97
2022-12-16T21:40:26.649Z,138.90
2022-12-16T21:43:13.623Z,136.40
2022-12-16T21:46:00.154Z,136.57
2022-12-16T21:48:46.488Z,142.03
2022-12-16T21:51:34.593Z,133.10
2022-12-16T21:54:20.871Z,143.93
2022-12-16T21:57:07.392Z,141.90
2022-12-16T21:59:53.802Z,141.33
2022-12-16T22:02:43.223Z,134.33
2022-12-16T22:05:25.985Z,143.83
2022-12-16T22:08:14.139Z,129.07
2022-12-16T22:11:00.978Z,115.10
2022-12-16T22:13:49.591Z,132.33
2022-12-16T22:16:35.911Z,125.10
2022-12-16T22:19:22.275Z,120.77
2022-12-16T22:22:09.227Z,120.53
2022-12-16T22:24:57.702Z,112.83
2022-12-16T22:27:44.125Z,107.70
2022-12-16T22:30:31.066Z,124.43
2022-12-16T22:33:17.615Z,121.30
2022-12-16T22:36:04.008Z,112.43
2022-12-16T22:38:51.900Z,115.23
2022-12-16T22:41:39.542Z,115.50
2022-12-16T22:44:26.976Z,126.13
2022-12-16T22:47:15.544Z,115.63
2022-12-16T22:50:02.967Z,132.03
2022-12-16T22:52:49.746Z,125.43
2022-12-16T22:55:35.915Z,121.30
2022-12-16T22:58:27.386Z,131.60
2022-12-16T23:01:13.859Z,132.93
2022-12-16T23:04:00.427Z,122.67
2022-12-16T23:06:46.741Z,128.53
2022-12-16T23:09:32.901Z,105.47
2022-12-16T23:12:19.392Z,123.70
2022-12-16T23:15:07.389Z,123.60
2022-12-16T23:17:55.787Z,127.60
2022-12-16T23:20:42.297Z,122.67
2022-12-16T23:23:28.666Z,124.87
2022-12-16T23:26:15.990Z,132.50
2022-12-16T23:29:02.353Z,126.80
2022-12-16T23:31:50.478Z,123.40
2022-12-16T23:34:40.881Z,121.37
2022-12-16T23:37:31.740Z,120.97
2022-12-16T23:40:18.433Z,129.93
2022-12-16T23:43:06.037Z,123.43
2022-12-16T23:45:52.852Z,128.13
2022-12-16T23:48:43.875Z,123.10
2022-12-16T23:51:30.333Z,121.90
2022-12-16T23:54:20.237Z,123.90
2022-12-16T23:57:09.613Z,107.13
2022-12-16T23:59:56.505Z,114.50
